Time;durP1;ratioP1;P1;durP2;ratioP2;P2;SDS_P1;SDS_P2;PMS_P1;PMS_P2;Temp;Humidity;BMP_temperature;BMP_pressure;BME280_temperature;BME280_humidity;BME280_pressure;Samples;Min_cycle;Max_cycle;Signal;HPM_P1;HPM_P2
2021/12/26 00:00:18;;;;;;;96.20;14.63;;;3.70;99.90;;;;;;5019647;28;20220;-79
2021/12/26 00:02:45;;;;;;;107.68;19.88;;;;;;;;;;5023100;28;20311;-79
2021/12/26 00:05:12;;;;;;;101.35;16.65;;;;;;;;;;5016486;28;20605;-79
2021/12/26 00:07:41;;;;;;;133.65;18.77;;;;;;;;;;5017396;28;20248;-79
2021/12/26 00:10:11;;;;;;;51.40;13.48;;;3.70;99.90;;;;;;5022522;28;20287;-79
2021/12/26 00:12:38;;;;;;;119.13;17.92;;;3.80;99.90;;;;;;5019854;28;20288;-79
2021/12/26 00:15:07;;;;;;;86.90;17.98;;;3.50;99.90;;;;;;5021090;28;20571;-79
2021/12/26 00:17:34;;;;;;;118.90;16.25;;;;;;;;;;5021983;28;20292;-79
2021/12/26 00:20:01;;;;;;;32.13;13.43;;;;;;;;;;5018600;28;20217;-79
2021/12/26 00:22:29;;;;;;;96.22;17.02;;;;;;;;;;5023398;28;20296;-79
2021/12/26 00:24:57;;;;;;;121.82;20.23;;;;;;;;;;5019283;28;20297;-79
2021/12/26 00:27:25;;;;;;;33.42;10.80;;;;;;;;;;5021886;28;20295;-79
2021/12/26 00:29:52;;;;;;;72.10;16.77;;;3.60;99.90;;;;;;5021586;28;20280;-79
2021/12/26 00:32:19;;;;;;;70.07;15.80;;;;;;;;;;5021541;28;20316;-79
2021/12/26 00:34:50;;;;;;;143.93;20.08;;;;;;;;;;5020579;28;20219;-79
2021/12/26 00:37:17;;;;;;;146.80;22.90;;;;;;;;;;5021322;28;20201;-79
2021/12/26 00:39:44;;;;;;;216.40;21.38;;;;;;;;;;5022883;28;20284;-79
2021/12/26 00:42:13;;;;;;;218.90;26.08;;;;;;;;;;5017540;28;20718;-79
2021/12/26 00:44:40;;;;;;;108.63;18.90;;;;;;;;;;5020764;28;20663;-79
2021/12/26 00:47:08;;;;;;;120.53;16.90;;;;;;;;;;5021976;28;20224;-79
2021/12/26 00:49:35;;;;;;;140.60;19.52;;;;;;;;;;5018802;28;20308;-79
2021/12/26 00:52:02;;;;;;;121.68;17.45;;;;;;;;;;5020294;28;20232;-79
2021/12/26 00:54:29;;;;;;;80.65;18.20;;;;;;;;;;5019861;28;20288;-79
2021/12/26 00:56:57;;;;;;;183.10;22.55;;;;;;;;;;5022328;28;20283;-79
2021/12/26 00:59:25;;;;;;;209.13;24.15;;;;;;;;;;5019699;28;20208;-78
2021/12/26 01:01:54;;;;;;;232.70;24.85;;;3.70;99.90;;;;;;5019062;28;20594;-80
2021/12/26 01:04:21;;;;;;;83.63;15.32;;;;;;;;;;5016230;28;20285;-78
2021/12/26 01:06:51;;;;;;;233.40;29.25;;;3.60;99.90;;;;;;5020852;28;20236;-79
2021/12/26 01:09:23;;;;;;;48.15;14.68;;;3.60;99.90;;;;;;5018499;28;20236;-79
2021/12/26 01:11:55;;;;;;;176.45;21.65;;;;;;;;;;5017217;28;20232;-79
2021/12/26 01:14:28;;;;;;;70.40;15.55;;;3.70;99.90;;;;;;5016986;28;20224;-79
2021/12/26 01:17:04;;;;;;;86.25;18.58;;;3.80;99.90;;;;;;5022394;28;20216;-79
2021/12/26 01:19:42;;;;;;;97.18;16.45;;;;;;;;;;5035411;28;20212;-79
2021/12/26 01:22:10;;;;;;;178.45;21.10;;;;;;;;;;5020625;28;20251;-79
2021/12/26 01:24:38;;;;;;;90.43;16.58;;;;;;;;;;5019125;28;20215;-79
2021/12/26 01:27:07;;;;;;;274.75;31.67;;;;;;;;;;5035942;28;20266;-79
2021/12/26 01:29:37;;;;;;;171.07;20.13;;;;;;;;;;5021109;28;20283;-79
2021/12/26 01:32:06;;;;;;;135.20;23.63;;;3.50;99.90;;;;;;5020054;28;20229;-79
2021/12/26 01:34:34;;;;;;;160.23;21.08;;;;;;;;;;5019969;28;20796;-79
2021/12/26 01:37:01;;;;;;;216.48;24.58;;;;;;;;;;5020692;28;20189;-79
2021/12/26 01:39:28;;;;;;;124.40;19.02;;;;;;;;;;5020084;28;20615;-79
2021/12/26 01:42:01;;;;;;;92.40;16.70;;;;;;;;;;5018878;28;20198;-79
2021/12/26 01:44:28;;;;;;;40.58;11.30;;;;;;;;;;5019721;28;20203;-79
2021/12/26 01:46:57;;;;;;;25.92;10.70;;;;;;;;;;5020133;28;20275;-79
2021/12/26 01:49:26;;;;;;;193.48;23.05;;;3.80;99.90;;;;;;5016924;28;20209;-79
2021/12/26 01:51:56;;;;;;;156.20;20.10;;;3.70;99.90;;;;;;5022842;28;20224;-79
2021/12/26 01:54:30;;;;;;;144.88;20.33;;;3.60;99.90;;;;;;5017087;28;20260;-79
2021/12/26 01:56:58;;;;;;;54.08;14.57;;;3.40;99.90;;;;;;5013273;28;20223;-79
2021/12/26 01:59:25;;;;;;;23.15;10.35;;;;;;;;;;5017831;28;20204;-79
2021/12/26 02:01:53;;;;;;;21.17;9.73;;;;;;;;;;5022615;28;20193;-79
2021/12/26 02:04:21;;;;;;;49.15;12.27;;;3.80;99.90;;;;;;5014906;28;20250;-79
2021/12/26 02:06:49;;;;;;;40.05;11.90;;;;;;;;;;5019928;28;20205;-79
2021/12/26 02:09:17;;;;;;;118.45;15.23;;;;;;;;;;5016985;28;20225;-79
2021/12/26 02:11:44;;;;;;;187.05;20.75;;;;;;;;;;5021187;28;20228;-79
2021/12/26 02:14:13;;;;;;;70.45;10.70;;;;;;;;;;5018287;28;20272;-79
2021/12/26 02:16:40;;;;;;;37.28;10.52;;;;;;;;;;5021791;28;20232;-79
2021/12/26 02:19:07;;;;;;;49.40;10.88;;;;;;;;;;5016356;28;20197;-79
2021/12/26 02:21:58;;;;;;;90.20;14.43;;;;;;;;;;5023187;28;20213;-79
2021/12/26 02:24:30;;;;;;;90.50;14.82;;;;;;;;;;5015655;28;20202;-79
2021/12/26 02:29:42;;;;;;;122.65;15.32;;;;;;;;;;5016630;28;20209;-79
2021/12/26 02:32:10;;;;;;;80.15;10.15;;;3.80;99.90;;;;;;5022697;28;20294;-79
2021/12/26 02:34:37;;;;;;;128.18;18.10;;;4.00;99.90;;;;;;5015742;28;20213;-79
2021/12/26 02:37:06;;;;;;;111.78;15.88;;;;;;;;;;5019253;28;20626;-78
2021/12/26 02:39:35;;;;;;;88.30;15.40;;;;;;;;;;5019847;28;20197;-78
2021/12/26 02:42:02;;;;;;;77.00;13.52;;;;;;;;;;5017802;28;20212;-79
2021/12/26 02:44:29;;;;;;;15.75;7.40;;;;;;;;;;5019109;28;20235;-78
2021/12/26 02:46:57;;;;;;;36.75;9.77;;;;;;;;;;5020143;28;20239;-79
2021/12/26 02:49:24;;;;;;;70.68;11.35;;;3.80;99.90;;;;;;5016787;28;20209;-79
2021/12/26 02:51:52;;;;;;;65.60;10.32;;;3.80;99.90;;;;;;5013290;28;21016;-79
2021/12/26 02:54:24;;;;;;;72.57;12.82;;;3.60;99.90;;;;;;5017946;28;20203;-80
2021/12/26 02:56:51;;;;;;;19.92;8.27;;;;;;;;;;5018190;28;20208;-79
2021/12/26 02:59:18;;;;;;;91.85;13.18;;;;;;;;;;5019362;28;20232;-79
2021/12/26 03:01:45;;;;;;;50.80;11.52;;;;;;;;;;5020984;28;20388;-79
2021/12/26 03:04:13;;;;;;;9.95;6.70;;;;;;;;;;5017253;28;20863;-79
2021/12/26 03:06:47;;;;;;;37.42;9.98;;;;;;;;;;5017221;28;20313;-79
2021/12/26 03:09:15;;;;;;;59.85;11.60;;;;;;;;;;5018496;28;20666;-79
2021/12/26 03:11:45;;;;;;;56.03;11.85;;;3.80;99.90;;;;;;5019593;28;20282;-79
2021/12/26 03:14:12;;;;;;;24.92;9.25;;;;;;;;;;5024679;28;20254;-79
2021/12/26 03:16:46;;;;;;;53.67;10.90;;;3.70;99.90;;;;;;5022210;28;20299;-79
2021/12/26 03:19:14;;;;;;;41.72;9.00;;;;;;;;;;5019166;28;20296;-79
2021/12/26 03:21:42;;;;;;;18.52;8.45;;;3.90;99.90;;;;;;5022652;28;20283;-79
2021/12/26 03:24:09;;;;;;;66.45;13.68;;;;;;;;;;5021648;28;20233;-79
2021/12/26 03:26:36;;;;;;;62.42;11.27;;;;;;;;;;5020340;28;20237;-79
2021/12/26 03:29:05;;;;;;;46.40;10.18;;;;;;;;;;5022087;28;20276;-79
2021/12/26 03:31:32;;;;;;;75.80;11.68;;;;;;;;;;5022717;28;20316;-79
2021/12/26 03:33:59;;;;;;;68.30;12.48;;;;;;;;;;5022228;28;20684;-79
2021/12/26 03:36:26;;;;;;;103.68;12.90;;;;;;;;;;5023556;28;20255;-79
2021/12/26 03:38:56;;;;;;;51.30;12.27;;;;;;;;;;5020286;28;20232;-79
2021/12/26 03:41:23;;;;;;;41.58;11.15;;;;;;;;;;5024465;28;20200;-79
2021/12/26 03:43:51;;;;;;;60.75;11.68;;;;;;;;;;5021368;28;20236;-79
2021/12/26 03:46:19;;;;;;;18.38;7.80;;;;;;;;;;5023236;28;20204;-79
2021/12/26 03:48:46;;;;;;;27.67;8.93;;;;;;;;;;5019504;28;20211;-79
2021/12/26 03:51:13;;;;;;;102.20;14.10;;;;;;;;;;5021871;28;20228;-79
2021/12/26 03:53:40;;;;;;;27.50;9.75;;;;;;;;;;5022479;28;20320;-79
2021/12/26 03:56:08;;;;;;;98.90;13.13;;;;;;;;;;5021633;28;20684;-79
2021/12/26 03:58:35;;;;;;;65.00;12.80;;;;;;;;;;5023147;28;20303;-79
2021/12/26 04:01:02;;;;;;;39.83;10.98;;;3.50;99.90;;;;;;5023914;28;20192;-79
2021/12/26 04:03:30;;;;;;;35.70;11.15;;;3.80;99.90;;;;;;5025699;28;20197;-79
2021/12/26 04:05:58;;;;;;;45.80;10.13;;;;;;;;;;5023676;28;20620;-79
2021/12/26 04:08:25;;;;;;;86.72;12.73;;;;;;;;;;5022756;28;20829;-79
2021/12/26 04:10:52;;;;;;;39.70;9.93;;;;;;;;;;5023317;28;20321;-79
2021/12/26 04:13:19;;;;;;;53.92;11.48;;;;;;;;;;5020697;28;20236;-79
2021/12/26 04:15:47;;;;;;;47.97;10.18;;;;;;;;;;5023966;28;20638;-79
2021/12/26 04:18:14;;;;;;;82.72;12.73;;;;;;;;;;5022805;28;20656;-79
2021/12/26 04:20:42;;;;;;;38.03;10.45;;;3.00;99.90;;;;;;5022162;28;20219;-79
2021/12/26 04:23:09;;;;;;;44.65;11.40;;;;;;;;;;5020695;28;20300;-79
2021/12/26 04:25:37;;;;;;;71.93;9.80;;;;;;;;;;5022880;28;20533;-79
2021/12/26 04:28:04;;;;;;;22.73;9.05;;;;;;;;;;5019974;28;20299;-79
2021/12/26 04:30:31;;;;;;;50.90;11.07;;;;;;;;;;5022789;28;20312;-79
2021/12/26 04:32:58;;;;;;;26.55;9.13;;;;;;;;;;5025072;28;20256;-79
2021/12/26 04:35:26;;;;;;;42.80;8.82;;;3.70;99.90;;;;;;5018896;28;20655;-78
2021/12/26 04:37:54;;;;;;;64.80;10.50;;;;;;;;;;5025468;28;20312;-79
2021/12/26 04:40:22;;;;;;;71.13;10.30;;;;;;;;;;5020202;28;20228;-79
2021/12/26 04:42:50;;;;;;;36.60;9.10;;;;;;;;;;5015885;28;20287;-79
2021/12/26 04:45:17;;;;;;;51.58;10.80;;;;;;;;;;5021416;28;20573;-79
2021/12/26 04:47:45;;;;;;;70.47;11.15;;;3.90;99.90;;;;;;5023884;28;20224;-79
2021/12/26 04:50:15;;;;;;;117.50;15.10;;;3.90;99.90;;;;;;5019385;28;20292;-79
2021/12/26 04:52:45;;;;;;;29.67;8.75;;;3.90;99.90;;;;;;5021907;28;20243;-79
2021/12/26 04:55:16;;;;;;;59.10;9.88;;;3.90;99.90;;;;;;5021563;28;20251;-79
2021/12/26 04:57:43;;;;;;;21.05;9.02;;;;;;;;;;5021374;28;20212;-79
2021/12/26 05:00:13;;;;;;;48.72;10.82;;;4.60;99.90;;;;;;5020568;28;20240;-79
2021/12/26 05:02:40;;;;;;;29.55;10.00;;;;;;;;;;5021528;28;20232;-79
2021/12/26 05:05:09;;;;;;;43.80;11.55;;;3.90;99.90;;;;;;5023954;28;20270;-79
2021/12/26 05:07:36;;;;;;;47.58;12.10;;;;;;;;;;5022333;28;20696;-79
2021/12/26 05:10:04;;;;;;;38.05;10.07;;;;;;;;;;5019975;28;20291;-79
2021/12/26 05:12:32;;;;;;;70.88;12.55;;;;;;;;;;5020674;28;20794;-79
2021/12/26 05:15:01;;;;;;;62.75;11.57;;;;;;;;;;5021282;28;20232;-79
2021/12/26 05:17:30;;;;;;;70.80;12.65;;;;;;;;;;5020640;28;20696;-79
2021/12/26 05:19:57;;;;;;;73.22;13.52;;;;;;;;;;5019756;28;20206;-79
2021/12/26 05:22:24;;;;;;;75.68;13.10;;;;;;;;;;5019689;28;20251;-79
2021/12/26 05:24:51;;;;;;;71.68;11.80;;;;;;;;;;5019093;28;20295;-79
2021/12/26 05:27:19;;;;;;;69.75;12.70;;;;;;;;;;5021651;28;20198;-79
2021/12/26 05:29:47;;;;;;;48.22;11.13;;;;;;;;;;5020603;28;20220;-79
2021/12/26 05:32:14;;;;;;;33.40;10.10;;;;;;;;;;5021297;28;20248;-79
2021/12/26 05:34:42;;;;;;;29.33;9.38;;;;;;;;;;5019142;28;20236;-79
2021/12/26 05:37:09;;;;;;;36.55;11.45;;;;;;;;;;5018089;28;20331;-79
2021/12/26 05:39:36;;;;;;;94.75;13.18;;;;;;;;;;5021041;28;20291;-79
2021/12/26 05:42:04;;;;;;;110.72;14.07;;;3.70;99.90;;;;;;5020669;28;20312;-79
2021/12/26 05:44:31;;;;;;;65.28;12.40;;;;;;;;;;5019303;28;20204;-79
2021/12/26 05:47:00;;;;;;;85.70;11.48;;;;;;;;;;5024725;28;20200;-79
2021/12/26 05:49:27;;;;;;;45.65;10.55;;;;;;;;;;5019759;28;20263;-79
2021/12/26 05:51:55;;;;;;;99.82;12.90;;;;;;;;;;5020405;28;20288;-79
2021/12/26 05:54:22;;;;;;;79.32;14.07;;;;;;;;;;5019679;28;20498;-79
2021/12/26 05:56:49;;;;;;;125.72;14.75;;;;;;;;;;5021232;28;20283;-79
2021/12/26 05:59:16;;;;;;;81.28;12.50;;;;;;;;;;5021206;28;20209;-79
2021/12/26 06:01:43;;;;;;;77.75;11.77;;;;;;;;;;5020053;28;20308;-79
2021/12/26 06:04:12;;;;;;;15.20;8.55;;;;;;;;;;5020993;28;20233;-79
2021/12/26 06:06:39;;;;;;;35.75;8.43;;;;;;;;;;5016861;28;20201;-78
2021/12/26 06:09:07;;;;;;;56.25;11.77;;;;;;;;;;5021885;28;20221;-79
2021/12/26 06:11:34;;;;;;;52.33;9.73;;;4.10;99.90;;;;;;5018430;28;20232;-79
2021/12/26 06:14:01;;;;;;;17.85;9.25;;;;;;;;;;5021255;28;20236;-79
2021/12/26 06:16:29;;;;;;;27.67;8.95;;;;;;;;;;5020034;28;20252;-79
2021/12/26 06:18:56;;;;;;;25.45;9.00;;;;;;;;;;5016540;28;20288;-79
2021/12/26 06:21:25;;;;;;;31.52;9.88;;;;;;;;;;5023784;28;20802;-79
2021/12/26 06:23:53;;;;;;;36.10;10.43;;;;;;;;;;5019940;28;20225;-79
2021/12/26 06:26:21;;;;;;;40.70;9.43;;;4.10;99.90;;;;;;5018225;28;20305;-79
2021/12/26 06:28:48;;;;;;;27.67;9.00;;;;;;;;;;5020691;28;20955;-79
2021/12/26 06:31:15;;;;;;;17.83;9.05;;;;;;;;;;5021532;28;20207;-79
2021/12/26 06:33:43;;;;;;;17.40;8.63;;;;;;;;;;5014060;28;20307;-80
2021/12/26 06:36:10;;;;;;;16.10;8.85;;;;;;;;;;5023718;28;20200;-80
2021/12/26 06:38:39;;;;;;;12.95;8.80;;;;;;;;;;5027186;28;20293;-80
2021/12/26 06:41:07;;;;;;;9.52;7.47;;;4.20;99.90;;;;;;5027474;28;20279;-80
2021/12/26 06:43:35;;;;;;;12.90;7.40;;;;;;;;;;5027472;28;20189;-79
2021/12/26 06:46:02;;;;;;;11.60;7.63;;;4.20;99.90;;;;;;5026561;28;20220;-79
2021/12/26 06:48:29;;;;;;;12.43;8.30;;;;;;;;;;5027615;28;20749;-80
2021/12/26 06:50:56;;;;;;;12.77;7.50;;;;;;;;;;5026824;28;20817;-80
2021/12/26 06:53:24;;;;;;;14.18;9.13;;;;;;;;;;5025671;28;20654;-79
2021/12/26 06:55:52;;;;;;;12.55;8.07;;;;;;;;;;5025684;28;20220;-79
2021/12/26 06:58:19;;;;;;;13.32;7.57;;;;;;;;;;5027380;28;20880;-79
2021/12/26 07:00:47;;;;;;;15.60;9.27;;;4.30;99.90;;;;;;5027430;28;20276;-80
2021/12/26 07:03:14;;;;;;;18.85;9.13;;;;;;;;;;5026301;28;20291;-80
2021/12/26 07:05:41;;;;;;;14.93;9.98;;;;;;;;;;5025985;28;20278;-79
2021/12/26 07:08:09;;;;;;;14.32;10.43;;;4.40;99.90;;;;;;5025997;28;20296;-79
2021/12/26 07:10:36;;;;;;;16.02;9.55;;;3.60;99.90;;;;;;5026367;28;20250;-80
2021/12/26 07:13:05;;;;;;;11.20;7.60;;;;;;;;;;5024577;28;20225;-80
2021/12/26 07:15:32;;;;;;;14.60;9.02;;;;;;;;;;5026102;28;20215;-80
2021/12/26 07:17:59;;;;;;;14.15;7.05;;;;;;;;;;5026084;28;20319;-82
2021/12/26 07:20:27;;;;;;;14.07;9.00;;;;;;;;;;5024736;28;20219;-82
2021/12/26 07:22:54;;;;;;;18.10;8.70;;;;;;;;;;5026081;28;20200;-82
2021/12/26 07:25:21;;;;;;;18.35;9.75;;;;;;;;;;5025346;28;20193;-82
2021/12/26 07:27:49;;;;;;;16.15;8.25;;;;;;;;;;5021194;28;20248;-82
2021/12/26 07:30:17;;;;;;;13.68;7.65;;;4.70;99.90;;;;;;5026829;28;20725;-82
2021/12/26 07:32:44;;;;;;;15.60;8.68;;;;;;;;;;5024765;28;20272;-82
2021/12/26 07:35:12;;;;;;;21.13;10.20;;;;;;;;;;5026543;28;20288;-82
2021/12/26 07:37:39;;;;;;;18.67;8.05;;;;;;;;;;5024463;28;20231;-82
2021/12/26 07:40:07;;;;;;;15.25;8.50;;;;;;;;;;5027207;28;20286;-82
2021/12/26 07:42:34;;;;;;;12.23;7.93;;;;;;;;;;5026006;28;20236;-82
2021/12/26 07:45:01;;;;;;;22.98;9.25;;;;;;;;;;5026049;28;20258;-82
2021/12/26 07:47:30;;;;;;;14.15;8.88;;;;;;;;;;5025239;28;20228;-82
2021/12/26 07:49:57;;;;;;;16.10;9.10;;;;;;;;;;5026898;28;20227;-82
2021/12/26 07:52:29;;;;;;;18.45;10.18;;;;;;;;;;5025476;28;20287;-82
2021/12/26 07:54:56;;;;;;;15.35;8.63;;;;;;;;;;5025502;28;20229;-82
2021/12/26 07:57:23;;;;;;;18.98;10.32;;;;;;;;;;5026242;28;20843;-82
2021/12/26 07:59:50;;;;;;;17.90;9.20;;;;;;;;;;5021473;28;20337;-82
2021/12/26 08:02:20;;;;;;;15.80;9.23;;;4.90;99.90;;;;;;5026576;28;20192;-82
2021/12/26 08:04:49;;;;;;;17.30;10.57;;;4.90;99.90;;;;;;5024259;28;20667;-82
2021/12/26 08:07:16;;;;;;;14.30;9.00;;;;;;;;;;5020238;28;20240;-82
2021/12/26 08:09:43;;;;;;;17.73;10.55;;;;;;;;;;5023204;28;20295;-82
2021/12/26 08:12:11;;;;;;;12.85;10.02;;;;;;;;;;5024568;28;20623;-82
2021/12/26 08:14:38;;;;;;;14.88;9.88;;;;;;;;;;5021510;28;20294;-82
2021/12/26 08:17:06;;;;;;;15.82;8.55;;;;;;;;;;5022734;28;20699;-82
2021/12/26 08:19:34;;;;;;;15.57;10.23;;;;;;;;;;5019514;28;20751;-82
2021/12/26 08:22:03;;;;;;;15.27;10.07;;;5.10;99.90;;;;;;5020391;28;20988;-82
2021/12/26 08:24:30;;;;;;;14.23;8.48;;;;;;;;;;5028262;28;20197;-82
2021/12/26 08:26:57;;;;;;;12.98;8.00;;;;;;;;;;5029134;28;20201;-82
2021/12/26 08:29:24;;;;;;;13.32;9.10;;;;;;;;;;5030185;28;20200;-82
2021/12/26 08:31:55;;;;;;;15.98;8.68;;;5.10;99.90;;;;;;5028759;28;20207;-82
2021/12/26 08:34:23;;;;;;;18.98;9.90;;;;;;;;;;5027266;28;20232;-82
2021/12/26 08:36:57;;;;;;;16.92;10.50;;;5.10;99.90;;;;;;5029222;28;20866;-82
2021/12/26 08:39:26;;;;;;;21.92;10.05;;;;;;;;;;5027203;28;20196;-83
2021/12/26 08:41:54;;;;;;;11.05;8.90;;;;;;;;;;5027026;28;20263;-82
2021/12/26 08:44:21;;;;;;;16.80;9.00;;;;;;;;;;5025588;28;20219;-82
2021/12/26 08:46:48;;;;;;;15.52;9.80;;;;;;;;;;5021188;28;20199;-82
2021/12/26 08:49:16;;;;;;;17.38;10.65;;;5.40;99.90;;;;;;5027500;28;20200;-82
2021/12/26 08:51:44;;;;;;;13.15;8.45;;;5.40;99.90;;;;;;5024104;28;20674;-82
2021/12/26 08:54:12;;;;;;;14.00;8.27;;;;;;;;;;5020945;28;20232;-82
2021/12/26 08:56:41;;;;;;;17.35;10.02;;;5.20;99.90;;;;;;5023698;28;20204;-82
2021/12/26 08:59:08;;;;;;;12.05;8.80;;;;;;;;;;5031242;28;20224;-82
2021/12/26 09:01:36;;;;;;;14.13;9.05;;;;;;;;;;5028481;28;20212;-82
2021/12/26 09:04:04;;;;;;;13.45;8.60;;;5.30;99.90;;;;;;5023877;28;20288;-82
2021/12/26 09:06:31;;;;;;;11.95;7.85;;;;;;;;;;5023790;28;20243;-83
2021/12/26 09:08:58;;;;;;;12.35;8.65;;;;;;;;;;5024545;28;20200;-82
2021/12/26 09:11:26;;;;;;;13.90;9.43;;;;;;;;;;5029261;28;20279;-82
2021/12/26 09:13:54;;;;;;;14.15;9.45;;;;;;;;;;5028586;28;20232;-82
2021/12/26 09:16:22;;;;;;;13.75;8.88;;;;;;;;;;5024645;28;20237;-82
2021/12/26 09:18:50;;;;;;;12.70;8.63;;;5.10;99.90;;;;;;5017454;28;20212;-82
2021/12/26 09:21:17;;;;;;;12.27;8.85;;;;;;;;;;5023591;28;20678;-82
2021/12/26 09:23:44;;;;;;;13.30;9.10;;;;;;;;;;5024007;28;20212;-82
2021/12/26 09:26:12;;;;;;;10.77;8.90;;;;;;;;;;5020333;28;20216;-82
2021/12/26 09:28:39;;;;;;;12.93;8.98;;;;;;;;;;5023222;28;20247;-82
2021/12/26 09:31:08;;;;;;;14.15;9.45;;;;;;;;;;5027594;28;20208;-82
2021/12/26 09:33:35;;;;;;;14.85;9.80;;;;;;;;;;5022717;28;20600;-82
2021/12/26 09:36:03;;;;;;;13.50;9.00;;;;;;;;;;5025125;28;20200;-82
2021/12/26 09:38:30;;;;;;;14.75;9.68;;;;;;;;;;5022474;28;20204;-82
2021/12/26 09:40:59;;;;;;;12.80;7.93;;;;;;;;;;5024000;28;20690;-82
2021/12/26 09:43:26;;;;;;;14.02;8.68;;;;;;;;;;5023557;28;20225;-82
2021/12/26 09:45:54;;;;;;;13.45;9.27;;;5.60;99.90;;;;;;5023645;28;20197;-82
2021/12/26 09:48:23;;;;;;;13.23;8.80;;;5.60;99.90;;;;;;5022531;28;20219;-82
2021/12/26 09:50:50;;;;;;;13.65;9.27;;;;;;;;;;5014823;28;20205;-82
2021/12/26 09:53:17;;;;;;;11.55;8.00;;;;;;;;;;5022694;28;20536;-82
2021/12/26 09:55:44;;;;;;;11.57;8.38;;;;;;;;;;5020887;28;20565;-82
2021/12/26 09:58:13;;;;;;;12.00;8.25;;;5.50;99.90;;;;;;5020018;28;20690;-83
2021/12/26 10:00:43;;;;;;;11.93;9.40;;;5.80;99.90;;;;;;5024019;28;20577;-82
2021/12/26 10:03:33;;;;;;;12.38;8.57;;;5.70;99.90;;;;;;5023656;28;20208;-82
2021/12/26 10:06:13;;;;;;;11.10;7.72;;;5.70;99.90;;;;;;5016984;28;20430;-82
2021/12/26 10:09:01;;;;;;;11.07;8.13;;;5.70;99.90;;;;;;5025346;28;20193;-82
2021/12/26 10:11:29;;;;;;;11.20;7.75;;;;;;;;;;5024755;28;20200;-82
2021/12/26 10:13:58;;;;;;;15.45;11.07;;;5.90;99.90;;;;;;5010030;28;20661;-82
2021/12/26 10:16:26;;;;;;;13.13;9.40;;;6.10;99.90;;;;;;5020213;28;20279;-82
2021/12/26 10:18:54;;;;;;;12.20;8.90;;;;;;;;;;5019621;28;20693;-82
2021/12/26 10:21:42;;;;;;;12.05;9.18;;;6.00;99.90;;;;;;5020537;28;20201;-82
2021/12/26 10:24:12;;;;;;;12.93;9.25;;;;;;;;;;5020548;28;20335;-82
2021/12/26 10:26:45;;;;;;;13.40;9.55;;;6.30;99.90;;;;;;5023648;28;20200;-82
2021/12/26 10:29:21;;;;;;;13.13;8.80;;;6.50;99.90;;;;;;5021386;28;20219;-82
2021/12/26 10:31:58;;;;;;;15.52;12.15;;;6.50;99.90;;;;;;5020220;28;20279;-82
2021/12/26 10:34:29;;;;;;;14.75;9.82;;;6.80;99.90;;;;;;5020192;28;20305;-82
2021/12/26 10:36:59;;;;;;;13.80;9.50;;;6.60;99.90;;;;;;5021043;28;20219;-82
2021/12/26 10:39:27;;;;;;;12.90;9.35;;;6.50;99.90;;;;;;5024246;28;20201;-82
2021/12/26 10:41:58;;;;;;;14.57;9.48;;;6.60;99.90;;;;;;5025346;28;20208;-81
2021/12/26 10:44:32;;;;;;;14.05;9.85;;;6.50;99.90;;;;;;5024660;28;20677;-82
2021/12/26 10:47:00;;;;;;;14.07;9.65;;;6.50;99.90;;;;;;5024486;28;20197;-82
2021/12/26 10:49:31;;;;;;;17.88;10.15;;;6.60;99.90;;;;;;5015367;28;20209;-82
2021/12/26 10:52:01;;;;;;;14.05;9.43;;;6.60;99.90;;;;;;5014832;28;20208;-82
2021/12/26 10:54:32;;;;;;;11.48;9.68;;;6.50;99.90;;;;;;5019658;28;20224;-82
2021/12/26 10:57:03;;;;;;;11.50;9.43;;;;;;;;;;5018034;28;20672;-82
2021/12/26 10:59:30;;;;;;;15.88;10.45;;;;;;;;;;5018352;28;20638;-82
2021/12/26 11:01:58;;;;;;;13.80;9.82;;;;;;;;;;5022604;28;20664;-82
2021/12/26 11:04:25;;;;;;;16.98;10.18;;;;;;;;;;5015748;28;20561;-82
2021/12/26 11:07:00;;;;;;;14.55;10.88;;;;;;;;;;5020762;28;20209;-82
2021/12/26 11:09:28;;;;;;;12.65;9.65;;;;;;;;;;5021885;28;20200;-82
2021/12/26 11:12:04;;;;;;;12.88;10.13;;;7.00;99.90;;;;;;5019747;28;20201;-82
2021/12/26 11:14:31;;;;;;;14.88;10.20;;;;;;;;;;5018298;28;20230;-82
2021/12/26 11:16:58;;;;;;;12.73;9.55;;;;;;;;;;5022005;28;20213;-82
2021/12/26 11:19:42;;;;;;;13.88;9.93;;;;;;;;;;5020960;28;20542;-82
2021/12/26 11:22:10;;;;;;;13.25;10.45;;;;;;;;;;5021911;28;20215;-82
2021/12/26 11:24:38;;;;;;;17.35;11.10;;;;;;;;;;5019485;28;20201;-82
2021/12/26 11:27:06;;;;;;;12.77;10.30;;;;;;;;;;5021024;28;20558;-82
2021/12/26 11:29:33;;;;;;;16.92;10.85;;;;;;;;;;5019881;28;20651;-82
2021/12/26 11:32:00;;;;;;;12.70;10.57;;;;;;;;;;5022513;28;20220;-82
2021/12/26 11:34:31;;;;;;;11.80;10.52;;;7.30;99.90;;;;;;5021875;28;20294;-82
2021/12/26 11:36:59;;;;;;;15.68;10.20;;;7.10;99.90;;;;;;5025666;28;20219;-82
2021/12/26 11:39:28;;;;;;;13.43;10.45;;;7.10;99.90;;;;;;5023843;28;20211;-82
2021/12/26 11:42:08;;;;;;;15.82;11.30;;;7.00;99.90;;;;;;5023584;28;20193;-82
2021/12/26 11:44:50;;;;;;;13.77;10.90;;;;;;;;;;5021457;28;20237;-82
2021/12/26 11:47:40;;;;;;;19.73;11.70;;;7.40;99.90;;;;;;5023297;28;20291;-82
2021/12/26 11:50:32;;;;;;;12.20;10.45;;;9.40;99.90;;;;;;5026636;28;20722;-82
2021/12/26 11:53:27;;;;;;;15.50;10.95;;;7.60;99.90;;;;;;5023630;28;20620;-82
2021/12/26 11:56:07;;;;;;;19.27;12.43;;;7.40;99.90;;;;;;5023586;28;20224;-82
2021/12/26 11:58:46;;;;;;;19.80;11.67;;;7.50;99.90;;;;;;5023012;28;20631;-82
2021/12/26 12:01:15;;;;;;;17.77;12.43;;;7.50;99.90;;;;;;5029246;28;20642;-82
2021/12/26 12:03:42;;;;;;;17.23;12.50;;;;;;;;;;5026385;28;20623;-82
2021/12/26 12:06:24;;;;;;;14.70;11.48;;;7.30;99.90;;;;;;5023287;28;20639;-82
2021/12/26 12:08:51;;;;;;;18.33;11.60;;;;;;;;;;5023357;28;20283;-82
2021/12/26 12:11:20;;;;;;;15.75;11.30;;;;;;;;;;5023589;28;20634;-82
2021/12/26 12:13:50;;;;;;;11.63;9.90;;;7.40;99.90;;;;;;5022221;28;20208;-82
2021/12/26 12:16:37;;;;;;;11.53;9.90;;;7.40;99.90;;;;;;5024150;28;20674;-82
2021/12/26 12:19:10;;;;;;;14.00;11.67;;;7.60;99.90;;;;;;5022843;28;21035;-82
2021/12/26 12:21:40;;;;;;;12.70;9.93;;;7.80;99.90;;;;;;5026396;28;21119;-82
2021/12/26 12:24:09;;;;;;;17.37;11.03;;;7.80;99.90;;;;;;5022833;28;20632;-81
2021/12/26 12:26:44;;;;;;;15.33;11.60;;;7.90;99.90;;;;;;5022110;28;20841;-82
2021/12/26 12:29:13;;;;;;;13.33;11.70;;;7.70;99.90;;;;;;5023799;28;20705;-82
2021/12/26 12:31:40;;;;;;;12.90;10.07;;;;;;;;;;5022199;28;20631;-82
2021/12/26 12:34:09;;;;;;;12.47;9.60;;;;;;;;;;5023966;28;20638;-82
2021/12/26 12:36:40;;;;;;;12.10;10.23;;;8.00;99.90;;;;;;5020319;28;20663;-82
2021/12/26 12:39:13;;;;;;;15.13;10.27;;;8.10;99.90;;;;;;5023101;28;20630;-81
2021/12/26 12:41:44;;;;;;;11.40;9.57;;;8.00;99.90;;;;;;5025059;28;20650;-81
2021/12/26 12:44:44;;;;;;;10.93;9.70;;;8.10;99.90;;;;;;5021776;28;20631;-82
2021/12/26 12:47:24;;;;;;;14.03;9.53;;;8.00;99.90;;;;;;5002360;28;21022;-82
2021/12/26 12:49:53;;;;;;;14.07;10.00;;;7.90;99.90;;;;;;5022471;28;20635;-82
2021/12/26 12:52:40;;;;;;;10.70;9.10;;;7.90;99.90;;;;;;5023628;28;20639;-82
2021/12/26 12:55:09;;;;;;;9.57;8.67;;;7.70;99.90;;;;;;5022542;28;20740;-81
2021/12/26 12:57:40;;;;;;;9.87;7.93;;;7.90;99.90;;;;;;5023847;28;20615;-82
2021/12/26 13:00:44;;;;;;;10.03;8.57;;;7.90;99.90;;;;;;5023483;28;20639;-82
2021/12/26 13:03:18;;;;;;;9.30;7.87;;;7.80;99.90;;;;;;5025472;28;20615;-82
2021/12/26 13:05:47;;;;;;;11.03;9.00;;;;;;;;;;5021879;28;21177;-82
2021/12/26 13:08:16;;;;;;;11.27;9.57;;;7.80;99.90;;;;;;5021124;28;20646;-81
2021/12/26 13:10:44;;;;;;;11.30;9.33;;;;;;;;;;5023018;28;20635;-82
2021/12/26 13:13:13;;;;;;;11.37;8.60;;;7.70;99.90;;;;;;5024585;28;20999;-82
2021/12/26 13:15:55;;;;;;;14.77;9.00;;;8.00;99.90;;;;;;5020675;28;20654;-81
2021/12/26 13:18:23;;;;;;;11.60;9.80;;;7.90;99.90;;;;;;5020729;28;21270;-82
2021/12/26 13:20:51;;;;;;;10.90;9.67;;;;;;;;;;5022163;28;20631;-81
2021/12/26 13:23:18;;;;;;;12.60;9.90;;;;;;;;;;5024645;28;21204;-82
2021/12/26 13:25:48;;;;;;;10.13;9.10;;;7.80;99.90;;;;;;5019802;28;20628;-81
2021/12/26 13:28:22;;;;;;;11.23;9.20;;;8.00;99.90;;;;;;5021871;28;20655;-82
2021/12/26 13:30:54;;;;;;;11.57;9.40;;;7.80;99.90;;;;;;5024262;28;20644;-82
2021/12/26 13:33:23;;;;;;;11.60;8.60;;;7.90;99.90;;;;;;5017543;28;20627;-83
2021/12/26 13:35:52;;;;;;;11.17;8.63;;;7.80;99.90;;;;;;5020718;28;20671;-82
2021/12/26 13:38:20;;;;;;;12.13;8.27;;;7.70;99.90;;;;;;5021646;28;21204;-83
2021/12/26 13:40:50;;;;;;;11.50;9.00;;;7.70;99.90;;;;;;5020142;28;20962;-83
2021/12/26 13:43:25;;;;;;;13.87;9.80;;;;;;;;;;5024281;28;20631;-83
2021/12/26 13:45:57;;;;;;;13.30;10.03;;;8.10;99.90;;;;;;5019221;28;20631;-82
2021/12/26 13:48:29;;;;;;;12.53;9.40;;;8.10;99.90;;;;;;5020434;28;21203;-83
2021/12/26 13:50:57;;;;;;;9.13;7.80;;;;;;;;;;5020517;28;20620;-82
2021/12/26 13:53:25;;;;;;;12.47;9.60;;;;;;;;;;5024606;28;20670;-83
2021/12/26 13:55:54;;;;;;;11.70;9.87;;;;;;;;;;5022845;28;20673;-83